Terminal Aerodrome Forecast
Issued by NWS

Home | Current Version | Previous Version | Text Only | Print | Product List | Glossary On
Versions: 1 2 3 4 5 6 7 8 9 10 11 12 13 14
000
FTUS43 KDTX 182323
TAFMBS
TAF
KMBS 182323Z 1900/1924 21010KT P6SM SKC
     FM190500 21010KT P6SM SCT040 BKN150
      TEMPO 1910/1913 BKN040 OVC150
     FM191400 28013G20KT P6SM BKN250
     FM192200 25007KT P6SM SKC=

USA.gov is the U.S. government's official web portal to all federal, state and local government web resources and services.